This is the latest recevied weather packets stored in our database for station/object KL7LK-13. If no packets are shown the sender has not sent any weather packets the latest 10 day(s).
| Time | Temp. | Humidity | Pressure | Rain* | Wind** | Luminosity | Snow |
|---|---|---|---|---|---|---|---|
| 1777730621 | 4.44° C | 81% | 1024.3 hPa | - | - | 5 W/m² | - |
| 1777730002 | 4.44° C | 81% | 1024.3 hPa | - | - | 4 W/m² | - |
| 1777728144 | 4.44° C | 81% | 1023.8 hPa | - | - | 0 W/m² | - |
| 1777724570 | 5° C | 74% | 1022.7 hPa | - | - | 0 W/m² | - |
| 1777721574 | 5° C | 70% | 1021.5 hPa | - | - | 0 W/m² | - |
| 1777720335 | 5° C | 70% | 1021 hPa | - | - | 0 W/m² | - |
| 1777717980 | 6.11° C | 70% | 1019.8 hPa | - | - | 0 W/m² | - |
| 1777715006 | 4.44° C | 79% | 1019 hPa | - | - | 0 W/m² | - |
| 1777712549 | 3.89° C | 80% | 1018 hPa | - | - | 0 W/m² | - |
| 1777711290 | 5.56° C | 73% | 1017.6 hPa | - | - | 0 W/m² | - |
| 1777708934 | 4.44° C | 78% | 1017.4 hPa | - | - | 0 W/m² | - |
| 1777706578 | 5.56° C | 74% | 1016.9 hPa | - | - | 0 W/m² | - |
| 1777703479 | 6.67° C | 63% | 1016.9 hPa | - | - | 0 W/m² | - |
| 1777702983 | 7.22° C | 63% | 1016.9 hPa | - | - | 0 W/m² | - |
| 1777701124 | 7.22° C | 60% | 1016.7 hPa | - | - | 1 W/m² | - |
| 1777697529 | 7.78° C | 61% | 1016.8 hPa | - | - | 11 W/m² | - |
| 1777693310 | 9.44° C | 52% | 1017.4 hPa | - | - | 50 W/m² | - |
| 1777691595 | 10° C | 49% | 1017.9 hPa | - | - | 52 W/m² | - |
| 1777690355 | 10.56° C | 46% | 1017.6 hPa | - | - | 94 W/m² | - |
| 1777688599 | 10.56° C | 46% | 1017.7 hPa | - | - | 81 W/m² | - |
| 1777687979 | 10.56° C | 45% | 1017.7 hPa | - | - | 91 W/m² | - |
| 1777683162 | 10.56° C | 44% | 1017.8 hPa | - | - | 118 W/m² | - |
| 1777681405 | 11.11° C | 42% | 1019.1 hPa | - | - | 117 W/m² | - |
| 1777680781 | 11.11° C | 41% | 1019.2 hPa | - | - | 162 W/m² | - |
| 1777677682 | 11.67° C | 42% | 1019.6 hPa | - | - | 326 W/m² | - |
* Rain since midnight (hover to see other rain measurements)
** Current wind speed in m/s (hover to see current wind gust speed)